sensor_id;sensor_type;location;lat;lon;timestamp;P1;durP1;ratioP1;P2;durP2;ratioP2
10430;SDS011;5262;59.958;17.726;2023-05-07T00:01:35;1.77;;;1.10;;
10430;SDS011;5262;59.958;17.726;2023-05-07T00:04:01;2.70;;;1.50;;
10430;SDS011;5262;59.958;17.726;2023-05-07T00:06:27;1.60;;;1.03;;
10430;SDS011;5262;59.958;17.726;2023-05-07T00:08:54;1.33;;;1.20;;
10430;SDS011;5262;59.958;17.726;2023-05-07T00:11:19;2.13;;;1.33;;
10430;SDS011;5262;59.958;17.726;2023-05-07T00:13:46;1.40;;;1.00;;
10430;SDS011;5262;59.958;17.726;2023-05-07T00:16:13;1.60;;;1.10;;
10430;SDS011;5262;59.958;17.726;2023-05-07T00:18:39;3.53;;;1.40;;
10430;SDS011;5262;59.958;17.726;2023-05-07T00:21:04;2.30;;;1.10;;
10430;SDS011;5262;59.958;17.726;2023-05-07T00:23:30;2.03;;;1.23;;
10430;SDS011;5262;59.958;17.726;2023-05-07T00:25:56;1.53;;;1.20;;
10430;SDS011;5262;59.958;17.726;2023-05-07T00:28:21;1.63;;;1.10;;
10430;SDS011;5262;59.958;17.726;2023-05-07T00:30:47;1.27;;;1.10;;
10430;SDS011;5262;59.958;17.726;2023-05-07T00:33:12;2.97;;;1.40;;
10430;SDS011;5262;59.958;17.726;2023-05-07T00:35:38;2.53;;;1.40;;
10430;SDS011;5262;59.958;17.726;2023-05-07T00:38:04;2.03;;;1.33;;
10430;SDS011;5262;59.958;17.726;2023-05-07T00:40:29;1.93;;;1.40;;
10430;SDS011;5262;59.958;17.726;2023-05-07T00:42:55;2.50;;;1.20;;
10430;SDS011;5262;59.958;17.726;2023-05-07T00:45:23;1.40;;;1.10;;
10430;SDS011;5262;59.958;17.726;2023-05-07T00:47:54;1.60;;;1.40;;
10430;SDS011;5262;59.958;17.726;2023-05-07T00:50:25;2.40;;;1.47;;
10430;SDS011;5262;59.958;17.726;2023-05-07T00:52:52;1.40;;;1.27;;
10430;SDS011;5262;59.958;17.726;2023-05-07T00:55:18;1.80;;;1.20;;
10430;SDS011;5262;59.958;17.726;2023-05-07T00:57:45;2.60;;;1.30;;
10430;SDS011;5262;59.958;17.726;2023-05-07T01:00:11;3.57;;;1.70;;
10430;SDS011;5262;59.958;17.726;2023-05-07T01:02:38;1.83;;;1.30;;
10430;SDS011;5262;59.958;17.726;2023-05-07T01:05:04;3.73;;;1.80;;
10430;SDS011;5262;59.958;17.726;2023-05-07T01:07:32;3.80;;;1.40;;
10430;SDS011;5262;59.958;17.726;2023-05-07T01:09:58;3.30;;;1.30;;
10430;SDS011;5262;59.958;17.726;2023-05-07T01:12:24;2.20;;;1.57;;
10430;SDS011;5262;59.958;17.726;2023-05-07T01:14:51;2.90;;;1.30;;
10430;SDS011;5262;59.958;17.726;2023-05-07T01:17:21;2.07;;;1.33;;
10430;SDS011;5262;59.958;17.726;2023-05-07T01:19:46;4.03;;;1.40;;
10430;SDS011;5262;59.958;17.726;2023-05-07T01:22:13;3.10;;;1.30;;
10430;SDS011;5262;59.958;17.726;2023-05-07T01:24:41;1.60;;;1.40;;
10430;SDS011;5262;59.958;17.726;2023-05-07T01:27:07;3.93;;;1.60;;
10430;SDS011;5262;59.958;17.726;2023-05-07T01:29:33;2.53;;;1.53;;
10430;SDS011;5262;59.958;17.726;2023-05-07T01:32:00;8.50;;;1.47;;
10430;SDS011;5262;59.958;17.726;2023-05-07T01:34:27;2.50;;;1.33;;
10430;SDS011;5262;59.958;17.726;2023-05-07T01:36:55;2.00;;;1.57;;
10430;SDS011;5262;59.958;17.726;2023-05-07T01:39:26;2.57;;;1.60;;
10430;SDS011;5262;59.958;17.726;2023-05-07T01:41:56;1.33;;;1.10;;
10430;SDS011;5262;59.958;17.726;2023-05-07T01:44:24;2.07;;;1.20;;
10430;SDS011;5262;59.958;17.726;2023-05-07T01:46:50;1.23;;;1.07;;
10430;SDS011;5262;59.958;17.726;2023-05-07T01:49:16;1.73;;;1.27;;
10430;SDS011;5262;59.958;17.726;2023-05-07T01:51:42;4.47;;;1.10;;
10430;SDS011;5262;59.958;17.726;2023-05-07T01:54:09;1.53;;;1.10;;
10430;SDS011;5262;59.958;17.726;2023-05-07T01:56:34;1.83;;;1.40;;
10430;SDS011;5262;59.958;17.726;2023-05-07T01:59:00;2.00;;;1.33;;
10430;SDS011;5262;59.958;17.726;2023-05-07T02:01:27;3.30;;;1.70;;
10430;SDS011;5262;59.958;17.726;2023-05-07T02:03:52;2.67;;;1.40;;
10430;SDS011;5262;59.958;17.726;2023-05-07T02:06:19;2.30;;;1.63;;
10430;SDS011;5262;59.958;17.726;2023-05-07T02:08:44;2.57;;;1.27;;
10430;SDS011;5262;59.958;17.726;2023-05-07T02:11:11;3.60;;;1.50;;
10430;SDS011;5262;59.958;17.726;2023-05-07T02:13:37;5.83;;;1.67;;
10430;SDS011;5262;59.958;17.726;2023-05-07T02:16:02;1.90;;;1.40;;
10430;SDS011;5262;59.958;17.726;2023-05-07T02:18:28;1.73;;;1.30;;
10430;SDS011;5262;59.958;17.726;2023-05-07T02:20:54;3.33;;;1.73;;
10430;SDS011;5262;59.958;17.726;2023-05-07T02:23:20;3.37;;;1.50;;
10430;SDS011;5262;59.958;17.726;2023-05-07T02:25:46;1.70;;;1.30;;
10430;SDS011;5262;59.958;17.726;2023-05-07T02:28:12;2.23;;;1.67;;
10430;SDS011;5262;59.958;17.726;2023-05-07T02:30:37;2.40;;;1.93;;
10430;SDS011;5262;59.958;17.726;2023-05-07T02:33:03;4.83;;;1.70;;
10430;SDS011;5262;59.958;17.726;2023-05-07T02:35:29;1.80;;;1.40;;
10430;SDS011;5262;59.958;17.726;2023-05-07T02:37:55;3.50;;;1.30;;
10430;SDS011;5262;59.958;17.726;2023-05-07T02:40:20;4.27;;;1.30;;
10430;SDS011;5262;59.958;17.726;2023-05-07T02:42:46;1.50;;;1.40;;
10430;SDS011;5262;59.958;17.726;2023-05-07T02:45:12;4.17;;;1.53;;
10430;SDS011;5262;59.958;17.726;2023-05-07T02:47:37;2.43;;;1.53;;
10430;SDS011;5262;59.958;17.726;2023-05-07T02:50:03;2.27;;;1.40;;
10430;SDS011;5262;59.958;17.726;2023-05-07T02:52:29;2.93;;;1.43;;
10430;SDS011;5262;59.958;17.726;2023-05-07T02:54:55;2.17;;;1.63;;
10430;SDS011;5262;59.958;17.726;2023-05-07T02:57:21;2.20;;;1.27;;
10430;SDS011;5262;59.958;17.726;2023-05-07T02:59:46;1.80;;;1.20;;
10430;SDS011;5262;59.958;17.726;2023-05-07T03:02:12;2.40;;;1.33;;
10430;SDS011;5262;59.958;17.726;2023-05-07T03:04:38;1.90;;;1.33;;
10430;SDS011;5262;59.958;17.726;2023-05-07T03:07:04;3.53;;;1.70;;
10430;SDS011;5262;59.958;17.726;2023-05-07T03:09:30;1.60;;;1.30;;
10430;SDS011;5262;59.958;17.726;2023-05-07T03:11:56;1.70;;;1.40;;
10430;SDS011;5262;59.958;17.726;2023-05-07T03:14:21;3.87;;;2.07;;
10430;SDS011;5262;59.958;17.726;2023-05-07T03:16:48;3.37;;;1.57;;
10430;SDS011;5262;59.958;17.726;2023-05-07T03:19:14;2.40;;;1.60;;
10430;SDS011;5262;59.958;17.726;2023-05-07T03:21:40;4.57;;;2.00;;
10430;SDS011;5262;59.958;17.726;2023-05-07T03:24:05;2.40;;;1.77;;
10430;SDS011;5262;59.958;17.726;2023-05-07T03:26:31;3.93;;;1.57;;
10430;SDS011;5262;59.958;17.726;2023-05-07T03:28:57;2.27;;;1.47;;
10430;SDS011;5262;59.958;17.726;2023-05-07T03:31:22;3.90;;;1.60;;
10430;SDS011;5262;59.958;17.726;2023-05-07T03:33:52;2.43;;;1.93;;
10430;SDS011;5262;59.958;17.726;2023-05-07T03:36:18;1.73;;;1.47;;
10430;SDS011;5262;59.958;17.726;2023-05-07T03:38:44;2.10;;;1.50;;
10430;SDS011;5262;59.958;17.726;2023-05-07T03:41:10;2.43;;;1.50;;
10430;SDS011;5262;59.958;17.726;2023-05-07T03:43:36;1.93;;;1.73;;
10430;SDS011;5262;59.958;17.726;2023-05-07T03:46:02;4.63;;;2.43;;
10430;SDS011;5262;59.958;17.726;2023-05-07T03:48:27;3.70;;;2.57;;
10430;SDS011;5262;59.958;17.726;2023-05-07T03:50:53;4.17;;;2.50;;
10430;SDS011;5262;59.958;17.726;2023-05-07T03:53:18;4.03;;;2.60;;
10430;SDS011;5262;59.958;17.726;2023-05-07T03:55:44;2.90;;;2.10;;
10430;SDS011;5262;59.958;17.726;2023-05-07T03:58:10;2.00;;;1.67;;
10430;SDS011;5262;59.958;17.726;2023-05-07T04:00:35;4.90;;;1.90;;
10430;SDS011;5262;59.958;17.726;2023-05-07T04:03:03;2.27;;;1.60;;
10430;SDS011;5262;59.958;17.726;2023-05-07T04:05:30;2.70;;;1.50;;
10430;SDS011;5262;59.958;17.726;2023-05-07T04:07:57;2.57;;;2.00;;
10430;SDS011;5262;59.958;17.726;2023-05-07T04:10:24;3.63;;;1.90;;
10430;SDS011;5262;59.958;17.726;2023-05-07T04:12:49;2.87;;;1.90;;
10430;SDS011;5262;59.958;17.726;2023-05-07T04:15:15;6.40;;;2.20;;
10430;SDS011;5262;59.958;17.726;2023-05-07T04:17:41;2.20;;;1.47;;
10430;SDS011;5262;59.958;17.726;2023-05-07T04:20:08;2.50;;;1.60;;
10430;SDS011;5262;59.958;17.726;2023-05-07T04:22:35;3.37;;;1.80;;
10430;SDS011;5262;59.958;17.726;2023-05-07T04:25:02;5.23;;;2.17;;
10430;SDS011;5262;59.958;17.726;2023-05-07T04:27:28;3.60;;;2.00;;
10430;SDS011;5262;59.958;17.726;2023-05-07T04:29:54;2.47;;;2.20;;
10430;SDS011;5262;59.958;17.726;2023-05-07T04:32:23;2.73;;;2.00;;
10430;SDS011;5262;59.958;17.726;2023-05-07T04:34:50;3.27;;;1.90;;
10430;SDS011;5262;59.958;17.726;2023-05-07T04:37:15;4.63;;;2.40;;
10430;SDS011;5262;59.958;17.726;2023-05-07T04:39:42;3.77;;;2.43;;
10430;SDS011;5262;59.958;17.726;2023-05-07T04:42:07;3.30;;;2.47;;
10430;SDS011;5262;59.958;17.726;2023-05-07T04:44:34;3.87;;;2.33;;
10430;SDS011;5262;59.958;17.726;2023-05-07T04:47:02;2.47;;;2.10;;
10430;SDS011;5262;59.958;17.726;2023-05-07T04:49:27;2.77;;;2.20;;
10430;SDS011;5262;59.958;17.726;2023-05-07T04:51:53;2.93;;;2.00;;
10430;SDS011;5262;59.958;17.726;2023-05-07T04:54:18;4.83;;;2.40;;
10430;SDS011;5262;59.958;17.726;2023-05-07T04:56:44;3.87;;;2.10;;
10430;SDS011;5262;59.958;17.726;2023-05-07T04:59:10;4.00;;;1.90;;
10430;SDS011;5262;59.958;17.726;2023-05-07T05:01:36;3.27;;;2.20;;
10430;SDS011;5262;59.958;17.726;2023-05-07T05:04:01;3.40;;;2.00;;
10430;SDS011;5262;59.958;17.726;2023-05-07T05:06:27;3.80;;;2.17;;
10430;SDS011;5262;59.958;17.726;2023-05-07T05:08:53;2.93;;;2.27;;
10430;SDS011;5262;59.958;17.726;2023-05-07T05:11:19;3.17;;;2.20;;
10430;SDS011;5262;59.958;17.726;2023-05-07T05:13:45;3.03;;;1.97;;
10430;SDS011;5262;59.958;17.726;2023-05-07T05:16:14;4.97;;;2.23;;
10430;SDS011;5262;59.958;17.726;2023-05-07T05:18:39;2.63;;;2.17;;
10430;SDS011;5262;59.958;17.726;2023-05-07T05:21:05;3.33;;;2.10;;
10430;SDS011;5262;59.958;17.726;2023-05-07T05:23:31;2.50;;;1.87;;
10430;SDS011;5262;59.958;17.726;2023-05-07T05:25:57;3.77;;;2.00;;
10430;SDS011;5262;59.958;17.726;2023-05-07T05:28:23;2.27;;;2.03;;
10430;SDS011;5262;59.958;17.726;2023-05-07T05:30:49;3.53;;;1.90;;
10430;SDS011;5262;59.958;17.726;2023-05-07T05:33:15;3.90;;;1.90;;
10430;SDS011;5262;59.958;17.726;2023-05-07T05:35:41;3.10;;;2.40;;
10430;SDS011;5262;59.958;17.726;2023-05-07T05:38:07;2.77;;;2.40;;
10430;SDS011;5262;59.958;17.726;2023-05-07T05:40:32;3.73;;;2.00;;
10430;SDS011;5262;59.958;17.726;2023-05-07T05:42:58;2.93;;;2.17;;
10430;SDS011;5262;59.958;17.726;2023-05-07T05:45:24;3.90;;;2.63;;
10430;SDS011;5262;59.958;17.726;2023-05-07T05:47:50;3.87;;;2.30;;
10430;SDS011;5262;59.958;17.726;2023-05-07T05:50:15;2.70;;;1.90;;
10430;SDS011;5262;59.958;17.726;2023-05-07T05:52:41;3.53;;;2.17;;
10430;SDS011;5262;59.958;17.726;2023-05-07T05:55:07;3.27;;;2.33;;
10430;SDS011;5262;59.958;17.726;2023-05-07T05:57:33;2.00;;;1.80;;
10430;SDS011;5262;59.958;17.726;2023-05-07T05:59:59;2.70;;;1.83;;
10430;SDS011;5262;59.958;17.726;2023-05-07T06:02:26;3.20;;;2.00;;
10430;SDS011;5262;59.958;17.726;2023-05-07T06:04:52;3.87;;;1.67;;
10430;SDS011;5262;59.958;17.726;2023-05-07T06:07:17;2.37;;;2.10;;
10430;SDS011;5262;59.958;17.726;2023-05-07T06:09:43;3.07;;;1.90;;
10430;SDS011;5262;59.958;17.726;2023-05-07T06:12:09;3.37;;;2.03;;
10430;SDS011;5262;59.958;17.726;2023-05-07T06:14:35;2.03;;;1.80;;
10430;SDS011;5262;59.958;17.726;2023-05-07T06:17:00;3.70;;;2.00;;
10430;SDS011;5262;59.958;17.726;2023-05-07T06:19:26;2.70;;;2.03;;
10430;SDS011;5262;59.958;17.726;2023-05-07T06:21:53;3.07;;;1.70;;
10430;SDS011;5262;59.958;17.726;2023-05-07T06:24:19;2.93;;;1.60;;
10430;SDS011;5262;59.958;17.726;2023-05-07T06:26:44;3.33;;;1.70;;
10430;SDS011;5262;59.958;17.726;2023-05-07T06:29:10;2.03;;;1.77;;
10430;SDS011;5262;59.958;17.726;2023-05-07T06:31:36;3.23;;;1.13;;
10430;SDS011;5262;59.958;17.726;2023-05-07T06:34:01;2.13;;;1.33;;
10430;SDS011;5262;59.958;17.726;2023-05-07T06:36:27;1.50;;;1.20;;
10430;SDS011;5262;59.958;17.726;2023-05-07T06:38:53;1.40;;;1.27;;
10430;SDS011;5262;59.958;17.726;2023-05-07T06:41:19;1.20;;;0.87;;
10430;SDS011;5262;59.958;17.726;2023-05-07T06:43:45;1.70;;;1.10;;
10430;SDS011;5262;59.958;17.726;2023-05-07T06:46:11;3.67;;;1.27;;
10430;SDS011;5262;59.958;17.726;2023-05-07T06:48:36;4.83;;;1.10;;
10430;SDS011;5262;59.958;17.726;2023-05-07T06:51:02;4.00;;;1.20;;
10430;SDS011;5262;59.958;17.726;2023-05-07T06:53:28;1.13;;;1.03;;
10430;SDS011;5262;59.958;17.726;2023-05-07T06:55:55;2.03;;;1.10;;
10430;SDS011;5262;59.958;17.726;2023-05-07T06:58:21;2.80;;;1.20;;
10430;SDS011;5262;59.958;17.726;2023-05-07T07:00:47;1.63;;;1.23;;
10430;SDS011;5262;59.958;17.726;2023-05-07T07:03:13;2.37;;;1.10;;
10430;SDS011;5262;59.958;17.726;2023-05-07T07:05:40;1.60;;;1.10;;
10430;SDS011;5262;59.958;17.726;2023-05-07T07:08:06;1.50;;;1.20;;
10430;SDS011;5262;59.958;17.726;2023-05-07T07:10:31;1.90;;;1.30;;
10430;SDS011;5262;59.958;17.726;2023-05-07T07:12:57;3.70;;;1.30;;
10430;SDS011;5262;59.958;17.726;2023-05-07T07:15:23;2.00;;;1.20;;
10430;SDS011;5262;59.958;17.726;2023-05-07T07:17:50;1.55;;;1.23;;
10430;SDS011;5262;59.958;17.726;2023-05-07T07:20:16;3.20;;;1.38;;
10430;SDS011;5262;59.958;17.726;2023-05-07T07:22:42;2.42;;;1.55;;
10430;SDS011;5262;59.958;17.726;2023-05-07T07:25:07;2.88;;;1.55;;
10430;SDS011;5262;59.958;17.726;2023-05-07T07:27:33;2.17;;;1.25;;
10430;SDS011;5262;59.958;17.726;2023-05-07T07:29:59;3.70;;;1.60;;
10430;SDS011;5262;59.958;17.726;2023-05-07T07:32:25;2.25;;;1.30;;
10430;SDS011;5262;59.958;17.726;2023-05-07T07:34:51;3.22;;;1.30;;
10430;SDS011;5262;59.958;17.726;2023-05-07T07:37:16;2.23;;;1.40;;
10430;SDS011;5262;59.958;17.726;2023-05-07T07:39:42;1.80;;;1.70;;
10430;SDS011;5262;59.958;17.726;2023-05-07T07:42:08;2.07;;;1.43;;
10430;SDS011;5262;59.958;17.726;2023-05-07T07:44:33;3.47;;;1.20;;
10430;SDS011;5262;59.958;17.726;2023-05-07T07:46:59;2.07;;;1.23;;
10430;SDS011;5262;59.958;17.726;2023-05-07T07:49:26;3.03;;;1.27;;
10430;SDS011;5262;59.958;17.726;2023-05-07T07:51:51;3.05;;;1.20;;
10430;SDS011;5262;59.958;17.726;2023-05-07T07:54:17;4.57;;;1.20;;
10430;SDS011;5262;59.958;17.726;2023-05-07T07:56:43;2.45;;;1.30;;
10430;SDS011;5262;59.958;17.726;2023-05-07T07:59:08;2.55;;;1.67;;
10430;SDS011;5262;59.958;17.726;2023-05-07T08:01:34;1.42;;;1.30;;
10430;SDS011;5262;59.958;17.726;2023-05-07T08:04:00;1.75;;;1.45;;
10430;SDS011;5262;59.958;17.726;2023-05-07T08:06:28;3.42;;;1.40;;
10430;SDS011;5262;59.958;17.726;2023-05-07T08:08:54;1.20;;;1.10;;
10430;SDS011;5262;59.958;17.726;2023-05-07T08:11:20;3.80;;;1.15;;
10430;SDS011;5262;59.958;17.726;2023-05-07T08:13:46;6.38;;;1.70;;
10430;SDS011;5262;59.958;17.726;2023-05-07T08:16:12;1.90;;;1.40;;
10430;SDS011;5262;59.958;17.726;2023-05-07T08:18:38;3.60;;;1.58;;
10430;SDS011;5262;59.958;17.726;2023-05-07T08:21:04;2.10;;;1.40;;
10430;SDS011;5262;59.958;17.726;2023-05-07T08:23:29;2.85;;;1.35;;
10430;SDS011;5262;59.958;17.726;2023-05-07T08:25:55;2.33;;;1.20;;
10430;SDS011;5262;59.958;17.726;2023-05-07T08:28:21;2.08;;;1.60;;
10430;SDS011;5262;59.958;17.726;2023-05-07T08:30:47;3.40;;;1.40;;
10430;SDS011;5262;59.958;17.726;2023-05-07T08:33:12;1.60;;;1.50;;
10430;SDS011;5262;59.958;17.726;2023-05-07T08:35:38;1.75;;;1.48;;
10430;SDS011;5262;59.958;17.726;2023-05-07T08:38:04;3.47;;;1.42;;
10430;SDS011;5262;59.958;17.726;2023-05-07T08:40:30;3.17;;;1.40;;
10430;SDS011;5262;59.958;17.726;2023-05-07T08:43:02;3.35;;;1.50;;
10430;SDS011;5262;59.958;17.726;2023-05-07T08:45:30;1.60;;;1.33;;
10430;SDS011;5262;59.958;17.726;2023-05-07T08:48:05;1.55;;;1.30;;
10430;SDS011;5262;59.958;17.726;2023-05-07T08:50:35;1.90;;;1.27;;
10430;SDS011;5262;59.958;17.726;2023-05-07T08:53:04;2.38;;;1.27;;
10430;SDS011;5262;59.958;17.726;2023-05-07T08:55:30;3.05;;;1.25;;
10430;SDS011;5262;59.958;17.726;2023-05-07T08:57:59;2.92;;;1.35;;
10430;SDS011;5262;59.958;17.726;2023-05-07T09:00:26;1.98;;;1.30;;
10430;SDS011;5262;59.958;17.726;2023-05-07T09:02:52;1.98;;;1.50;;
10430;SDS011;5262;59.958;17.726;2023-05-07T09:05:19;3.33;;;1.25;;
10430;SDS011;5262;59.958;17.726;2023-05-07T09:07:45;2.83;;;1.42;;
10430;SDS011;5262;59.958;17.726;2023-05-07T09:10:11;1.73;;;1.45;;
10430;SDS011;5262;59.958;17.726;2023-05-07T09:12:37;1.98;;;1.17;;
10430;SDS011;5262;59.958;17.726;2023-05-07T09:15:04;2.33;;;1.27;;
10430;SDS011;5262;59.958;17.726;2023-05-07T09:17:30;1.45;;;1.25;;
10430;SDS011;5262;59.958;17.726;2023-05-07T09:19:56;3.08;;;1.20;;
10430;SDS011;5262;59.958;17.726;2023-05-07T09:22:27;1.98;;;1.20;;
10430;SDS011;5262;59.958;17.726;2023-05-07T09:24:52;1.40;;;1.27;;
10430;SDS011;5262;59.958;17.726;2023-05-07T09:27:18;1.88;;;1.42;;
10430;SDS011;5262;59.958;17.726;2023-05-07T09:29:44;2.17;;;1.13;;
10430;SDS011;5262;59.958;17.726;2023-05-07T09:32:10;1.30;;;1.20;;
10430;SDS011;5262;59.958;17.726;2023-05-07T09:34:35;2.28;;;1.10;;
10430;SDS011;5262;59.958;17.726;2023-05-07T09:37:02;1.42;;;1.17;;
10430;SDS011;5262;59.958;17.726;2023-05-07T09:39:41;2.38;;;1.00;;
10430;SDS011;5262;59.958;17.726;2023-05-07T09:42:08;3.08;;;1.33;;
10430;SDS011;5262;59.958;17.726;2023-05-07T09:44:34;3.05;;;0.93;;
10430;SDS011;5262;59.958;17.726;2023-05-07T09:47:00;3.20;;;0.88;;
10430;SDS011;5262;59.958;17.726;2023-05-07T09:49:30;2.55;;;1.30;;
10430;SDS011;5262;59.958;17.726;2023-05-07T09:52:03;2.20;;;1.30;;
10430;SDS011;5262;59.958;17.726;2023-05-07T09:54:35;1.52;;;0.90;;
10430;SDS011;5262;59.958;17.726;2023-05-07T09:57:05;4.50;;;1.10;;
10430;SDS011;5262;59.958;17.726;2023-05-07T09:59:32;3.63;;;1.17;;
10430;SDS011;5262;59.958;17.726;2023-05-07T10:01:59;2.65;;;1.00;;
10430;SDS011;5262;59.958;17.726;2023-05-07T10:04:26;3.28;;;1.20;;
10430;SDS011;5262;59.958;17.726;2023-05-07T10:06:52;3.22;;;1.00;;
10430;SDS011;5262;59.958;17.726;2023-05-07T10:09:19;3.92;;;1.00;;
10430;SDS011;5262;59.958;17.726;2023-05-07T10:11:45;1.75;;;1.10;;
10430;SDS011;5262;59.958;17.726;2023-05-07T10:14:13;2.67;;;0.95;;
10430;SDS011;5262;59.958;17.726;2023-05-07T10:16:39;4.22;;;1.20;;
10430;SDS011;5262;59.958;17.726;2023-05-07T10:19:06;1.55;;;1.00;;
10430;SDS011;5262;59.958;17.726;2023-05-07T10:21:37;1.88;;;1.20;;
10430;SDS011;5262;59.958;17.726;2023-05-07T10:24:04;1.92;;;1.08;;
10430;SDS011;5262;59.958;17.726;2023-05-07T10:26:39;2.72;;;1.02;;
10430;SDS011;5262;59.958;17.726;2023-05-07T10:29:10;1.55;;;1.20;;
10430;SDS011;5262;59.958;17.726;2023-05-07T10:31:58;1.40;;;0.98;;
10430;SDS011;5262;59.958;17.726;2023-05-07T10:34:36;1.58;;;1.08;;
10430;SDS011;5262;59.958;17.726;2023-05-07T10:37:05;1.88;;;0.98;;
10430;SDS011;5262;59.958;17.726;2023-05-07T10:39:32;2.33;;;1.10;;
10430;SDS011;5262;59.958;17.726;2023-05-07T10:42:07;5.60;;;1.30;;
10430;SDS011;5262;59.958;17.726;2023-05-07T10:44:36;1.63;;;0.90;;
10430;SDS011;5262;59.958;17.726;2023-05-07T10:52:20;3.17;;;1.10;;
10430;SDS011;5262;59.958;17.726;2023-05-07T10:54:48;0.93;;;0.85;;
10430;SDS011;5262;59.958;17.726;2023-05-07T10:57:39;3.10;;;1.08;;
10430;SDS011;5262;59.958;17.726;2023-05-07T11:05:24;3.53;;;1.10;;
10430;SDS011;5262;59.958;17.726;2023-05-07T11:07:57;1.88;;;1.00;;
10430;SDS011;5262;59.958;17.726;2023-05-07T11:10:24;2.13;;;1.20;;
10430;SDS011;5262;59.958;17.726;2023-05-07T11:13:11;1.33;;;1.00;;
10430;SDS011;5262;59.958;17.726;2023-05-07T11:15:41;4.00;;;1.15;;
10430;SDS011;5262;59.958;17.726;2023-05-07T11:18:12;1.52;;;1.15;;
10430;SDS011;5262;59.958;17.726;2023-05-07T11:26:03;2.15;;;1.10;;
10430;SDS011;5262;59.958;17.726;2023-05-07T11:28:37;1.98;;;0.80;;
10430;SDS011;5262;59.958;17.726;2023-05-07T11:31:04;2.80;;;1.00;;
10430;SDS011;5262;59.958;17.726;2023-05-07T11:33:30;2.65;;;1.00;;
10430;SDS011;5262;59.958;17.726;2023-05-07T11:35:56;1.48;;;1.00;;
10430;SDS011;5262;59.958;17.726;2023-05-07T11:38:22;3.08;;;1.02;;
10430;SDS011;5262;59.958;17.726;2023-05-07T11:40:57;1.97;;;1.23;;
10430;SDS011;5262;59.958;17.726;2023-05-07T11:43:29;1.90;;;1.07;;
10430;SDS011;5262;59.958;17.726;2023-05-07T11:45:58;0.80;;;0.80;;
10430;SDS011;5262;59.958;17.726;2023-05-07T11:48:33;2.47;;;1.40;;
10430;SDS011;5262;59.958;17.726;2023-05-07T11:51:00;3.70;;;1.10;;
10430;SDS011;5262;59.958;17.726;2023-05-07T11:53:36;1.97;;;1.07;;
10430;SDS011;5262;59.958;17.726;2023-05-07T11:56:11;4.13;;;1.30;;
10430;SDS011;5262;59.958;17.726;2023-05-07T11:58:39;1.80;;;0.90;;
10430;SDS011;5262;59.958;17.726;2023-05-07T12:01:07;2.87;;;1.03;;
10430;SDS011;5262;59.958;17.726;2023-05-07T12:03:34;3.13;;;1.10;;
10430;SDS011;5262;59.958;17.726;2023-05-07T12:06:07;1.10;;;0.77;;
10430;SDS011;5262;59.958;17.726;2023-05-07T12:08:35;2.33;;;1.13;;
10430;SDS011;5262;59.958;17.726;2023-05-07T12:11:02;2.83;;;1.00;;
10430;SDS011;5262;59.958;17.726;2023-05-07T12:13:28;3.63;;;1.00;;
10430;SDS011;5262;59.958;17.726;2023-05-07T12:15:55;1.67;;;0.93;;
10430;SDS011;5262;59.958;17.726;2023-05-07T12:18:22;1.83;;;1.20;;
10430;SDS011;5262;59.958;17.726;2023-05-07T12:20:48;0.90;;;0.80;;
10430;SDS011;5262;59.958;17.726;2023-05-07T12:23:15;2.00;;;1.10;;
10430;SDS011;5262;59.958;17.726;2023-05-07T12:25:42;1.03;;;0.90;;
10430;SDS011;5262;59.958;17.726;2023-05-07T12:28:15;2.73;;;1.10;;
10430;SDS011;5262;59.958;17.726;2023-05-07T12:30:42;2.23;;;1.40;;
10430;SDS011;5262;59.958;17.726;2023-05-07T12:33:09;3.33;;;1.37;;
10430;SDS011;5262;59.958;17.726;2023-05-07T12:35:42;2.10;;;0.93;;
10430;SDS011;5262;59.958;17.726;2023-05-07T12:38:09;2.53;;;1.03;;
10430;SDS011;5262;59.958;17.726;2023-05-07T12:40:37;4.47;;;1.10;;
10430;SDS011;5262;59.958;17.726;2023-05-07T12:43:03;4.83;;;1.30;;
10430;SDS011;5262;59.958;17.726;2023-05-07T12:45:28;2.10;;;1.07;;
10430;SDS011;5262;59.958;17.726;2023-05-07T12:47:54;1.73;;;1.00;;
10430;SDS011;5262;59.958;17.726;2023-05-07T12:50:20;2.40;;;1.00;;
10430;SDS011;5262;59.958;17.726;2023-05-07T12:52:48;2.10;;;0.93;;
10430;SDS011;5262;59.958;17.726;2023-05-07T12:55:14;1.43;;;1.00;;
10430;SDS011;5262;59.958;17.726;2023-05-07T12:57:41;3.83;;;1.10;;
10430;SDS011;5262;59.958;17.726;2023-05-07T13:00:09;4.30;;;1.10;;
10430;SDS011;5262;59.958;17.726;2023-05-07T13:02:38;3.90;;;1.00;;
10430;SDS011;5262;59.958;17.726;2023-05-07T13:05:05;2.67;;;1.10;;
10430;SDS011;5262;59.958;17.726;2023-05-07T13:07:32;2.13;;;1.30;;
10430;SDS011;5262;59.958;17.726;2023-05-07T13:09:57;3.63;;;1.00;;
10430;SDS011;5262;59.958;17.726;2023-05-07T13:12:23;2.63;;;1.23;;
10430;SDS011;5262;59.958;17.726;2023-05-07T13:14:48;1.40;;;1.07;;
10430;SDS011;5262;59.958;17.726;2023-05-07T13:17:14;4.93;;;1.13;;
10430;SDS011;5262;59.958;17.726;2023-05-07T13:19:43;2.43;;;0.97;;
10430;SDS011;5262;59.958;17.726;2023-05-07T13:22:09;2.47;;;1.10;;
10430;SDS011;5262;59.958;17.726;2023-05-07T13:24:34;2.73;;;1.13;;
10430;SDS011;5262;59.958;17.726;2023-05-07T13:27:00;1.80;;;1.00;;
10430;SDS011;5262;59.958;17.726;2023-05-07T13:29:26;6.33;;;1.20;;
10430;SDS011;5262;59.958;17.726;2023-05-07T13:31:56;2.10;;;0.80;;
10430;SDS011;5262;59.958;17.726;2023-05-07T13:34:22;3.90;;;0.93;;
10430;SDS011;5262;59.958;17.726;2023-05-07T13:36:47;2.97;;;1.03;;
10430;SDS011;5262;59.958;17.726;2023-05-07T13:39:13;1.40;;;0.90;;
10430;SDS011;5262;59.958;17.726;2023-05-07T13:41:39;1.43;;;1.00;;
10430;SDS011;5262;59.958;17.726;2023-05-07T13:44:04;1.57;;;1.07;;
10430;SDS011;5262;59.958;17.726;2023-05-07T13:46:30;2.80;;;0.90;;
10430;SDS011;5262;59.958;17.726;2023-05-07T13:48:56;2.70;;;1.10;;
10430;SDS011;5262;59.958;17.726;2023-05-07T13:51:22;2.63;;;0.93;;
10430;SDS011;5262;59.958;17.726;2023-05-07T13:53:48;1.50;;;0.90;;
10430;SDS011;5262;59.958;17.726;2023-05-07T13:56:14;0.90;;;0.83;;
10430;SDS011;5262;59.958;17.726;2023-05-07T13:58:39;2.90;;;1.10;;
10430;SDS011;5262;59.958;17.726;2023-05-07T14:01:05;2.63;;;1.30;;
10430;SDS011;5262;59.958;17.726;2023-05-07T14:03:31;3.07;;;1.10;;
10430;SDS011;5262;59.958;17.726;2023-05-07T14:05:58;2.07;;;0.93;;
10430;SDS011;5262;59.958;17.726;2023-05-07T14:08:26;2.70;;;0.83;;
10430;SDS011;5262;59.958;17.726;2023-05-07T14:10:52;2.17;;;1.10;;
10430;SDS011;5262;59.958;17.726;2023-05-07T14:13:18;2.50;;;1.00;;
10430;SDS011;5262;59.958;17.726;2023-05-07T14:15:44;3.23;;;1.10;;
10430;SDS011;5262;59.958;17.726;2023-05-07T14:18:15;1.87;;;1.10;;
10430;SDS011;5262;59.958;17.726;2023-05-07T14:20:41;2.87;;;0.90;;
10430;SDS011;5262;59.958;17.726;2023-05-07T14:23:08;1.97;;;0.93;;
10430;SDS011;5262;59.958;17.726;2023-05-07T14:25:34;2.10;;;1.00;;
10430;SDS011;5262;59.958;17.726;2023-05-07T14:28:00;3.03;;;0.97;;
10430;SDS011;5262;59.958;17.726;2023-05-07T14:30:25;3.17;;;0.80;;
10430;SDS011;5262;59.958;17.726;2023-05-07T14:32:51;1.80;;;1.20;;
10430;SDS011;5262;59.958;17.726;2023-05-07T14:35:17;1.90;;;0.83;;
10430;SDS011;5262;59.958;17.726;2023-05-07T14:37:43;2.40;;;1.00;;
10430;SDS011;5262;59.958;17.726;2023-05-07T14:40:08;3.43;;;1.00;;
10430;SDS011;5262;59.958;17.726;2023-05-07T14:42:34;1.47;;;0.97;;
10430;SDS011;5262;59.958;17.726;2023-05-07T14:45:00;2.13;;;1.00;;
10430;SDS011;5262;59.958;17.726;2023-05-07T14:47:26;3.97;;;1.00;;
10430;SDS011;5262;59.958;17.726;2023-05-07T14:49:52;1.60;;;0.80;;
10430;SDS011;5262;59.958;17.726;2023-05-07T14:52:18;3.67;;;0.93;;
10430;SDS011;5262;59.958;17.726;2023-05-07T14:54:44;4.73;;;1.23;;
10430;SDS011;5262;59.958;17.726;2023-05-07T14:57:10;4.13;;;1.13;;
10430;SDS011;5262;59.958;17.726;2023-05-07T14:59:38;2.67;;;1.13;;
10430;SDS011;5262;59.958;17.726;2023-05-07T15:02:04;1.87;;;0.90;;